Time;durP1;ratioP1;P1;durP2;ratioP2;P2;SDS_P1;SDS_P2;PMS_P1;PMS_P2;Temp;Humidity;BMP_temperature;BMP_pressure;BME280_temperature;BME280_humidity;BME280_pressure;Samples;Min_cycle;Max_cycle;Signal;HPM_P1;HPM_P2
2022/10/07 00:01:10;;;;;;;9.00;3.57;;;6.60;1.00;;;;;;5083687;28;20465;-82
2022/10/07 00:10:19;;;;;;;11.00;3.53;;;6.60;1.00;;;;;;5075077;28;20975;-87
2022/10/07 00:19:41;;;;;;;15.63;3.90;;;6.50;1.00;;;;;;5074226;28;20820;-88
2022/10/07 00:29:47;;;;;;;7.93;4.10;;;6.40;1.00;;;;;;5082241;28;20902;-88
2022/10/07 00:38:58;;;;;;;13.10;4.20;;;6.40;1.00;;;;;;5077469;28;20436;-82
2022/10/07 00:45:12;;;;;;;12.57;3.40;;;6.30;1.00;;;;;;5081944;28;20454;-81
2022/10/07 00:57:46;;;;;;;7.73;3.90;;;6.30;1.00;;;;;;5076562;28;20423;-81
2022/10/07 01:00:36;;;;;;;10.73;3.93;;;6.20;1.00;;;;;;5079654;28;20453;-82
2022/10/07 01:16:47;;;;;;;14.27;5.37;;;6.00;1.00;;;;;;5095327;28;20840;-81
2022/10/07 01:22:37;;;;;;;9.87;4.30;;;5.90;1.00;;;;;;5088846;28;20198;-81
2022/10/07 01:25:31;;;;;;;12.00;4.57;;;5.90;1.00;;;;;;5077208;28;20403;-88
2022/10/07 01:31:37;;;;;;;10.50;4.30;;;6.00;1.00;;;;;;5084123;28;20504;-87
2022/10/07 01:40:53;;;;;;;10.20;4.50;;;5.90;1.00;;;;;;5077838;28;20400;-81
2022/10/07 01:43:24;;;;;;;9.83;4.10;;;5.90;1.00;;;;;;5075525;28;20421;-81
2022/10/07 01:46:40;;;;;;;9.53;4.10;;;5.90;1.00;;;;;;5075780;28;20406;-81
2022/10/07 01:53:17;;;;;;;17.70;4.50;;;5.90;1.00;;;;;;5083744;28;20458;-81
2022/10/07 01:59:42;;;;;;;12.30;4.50;;;5.90;1.00;;;;;;5076197;28;20432;-88
2022/10/07 02:05:49;;;;;;;14.53;4.33;;;5.80;1.00;;;;;;5083240;28;20439;-88
2022/10/07 02:09:05;;;;;;;9.27;4.63;;;5.80;1.00;;;;;;5065932;28;20460;-88
2022/10/07 02:18:18;;;;;;;11.10;5.10;;;5.70;1.00;;;;;;5087159;28;21386;-81
2022/10/07 02:21:03;;;;;;;13.80;4.63;;;5.80;1.00;;;;;;5075409;28;20398;-81
2022/10/07 02:26:53;;;;;;;10.00;4.87;;;5.80;1.00;;;;;;5086232;28;20441;-82
2022/10/07 02:32:45;;;;;;;18.50;5.07;;;5.80;1.00;;;;;;5085537;28;20826;-81
2022/10/07 02:38:33;;;;;;;9.47;4.20;;;5.80;1.00;;;;;;5077386;28;20815;-81
2022/10/07 02:41:41;;;;;;;10.90;4.20;;;5.70;1.00;;;;;;5087578;28;20522;-82
2022/10/07 02:50:55;;;;;;;8.20;3.93;;;5.70;1.00;;;;;;5082219;28;20454;-81
2022/10/07 02:53:31;;;;;;;9.40;4.30;;;5.70;1.00;;;;;;5091169;28;20551;-81
2022/10/07 02:59:30;;;;;;;9.43;4.80;;;5.70;1.00;;;;;;5089055;28;20407;-87
2022/10/07 03:02:00;;;;;;;12.80;4.23;;;5.70;1.00;;;;;;5078511;28;20540;-88
2022/10/07 03:11:59;;;;;;;10.37;4.23;;;5.70;1.00;;;;;;5080371;28;20447;-81
2022/10/07 03:17:46;;;;;;;14.80;4.60;;;5.70;1.00;;;;;;5079629;28;20484;-81
2022/10/07 03:20:35;;;;;;;13.53;4.30;;;5.70;1.00;;;;;;5092175;28;20476;-81
2022/10/07 03:23:05;;;;;;;11.80;4.67;;;5.60;1.00;;;;;;5090267;28;20178;-81
2022/10/07 03:28:54;;;;;;;11.90;4.90;;;5.70;1.00;;;;;;5083375;28;20416;-81
2022/10/07 03:35:35;;;;;;;18.03;5.40;;;5.80;1.00;;;;;;5076084;28;20518;-81
2022/10/07 03:38:35;;;;;;;7.20;4.43;;;5.90;1.00;;;;;;5100144;28;20428;-81
2022/10/07 03:41:18;;;;;;;12.23;4.40;;;6.00;1.00;;;;;;5083816;28;20412;-88
2022/10/07 03:57:50;;;;;;;16.10;4.47;;;6.20;1.00;;;;;;5076922;28;20408;-88
2022/10/07 04:01:10;;;;;;;14.60;4.50;;;6.20;1.00;;;;;;5077987;28;20440;-88
2022/10/07 04:03:35;;;;;;;11.50;3.83;;;6.20;1.00;;;;;;5074225;28;20469;-87
2022/10/07 04:09:23;;;;;;;5.70;3.50;;;6.20;1.00;;;;;;5074514;28;20643;-83
2022/10/07 04:12:06;;;;;;;16.03;4.50;;;6.20;1.00;;;;;;5077176;28;20440;-76
2022/10/07 04:14:35;;;;;;;6.27;3.90;;;6.20;1.00;;;;;;5086148;28;20285;-76
2022/10/07 04:17:41;;;;;;;8.33;3.43;;;6.20;1.00;;;;;;5078962;28;20486;-77
2022/10/07 04:23:41;;;;;;;7.20;3.60;;;6.20;1.00;;;;;;5082945;28;20423;-77
2022/10/07 04:33:01;;;;;;;8.57;3.67;;;6.10;1.00;;;;;;5078479;28;20789;-78
2022/10/07 04:36:05;;;;;;;11.80;4.10;;;6.10;1.00;;;;;;5083612;28;20844;-77
2022/10/07 04:45:35;;;;;;;9.00;4.20;;;6.00;1.00;;;;;;5088801;28;20435;-85
2022/10/07 04:48:11;;;;;;;10.33;3.93;;;6.00;1.00;;;;;;5076845;28;20904;-83
2022/10/07 04:50:50;;;;;;;8.60;3.80;;;6.00;1.00;;;;;;5083143;28;20418;-83
2022/10/07 04:53:17;;;;;;;15.37;4.80;;;6.00;1.00;;;;;;5088547;28;20460;-83
2022/10/07 04:56:05;;;;;;;12.90;4.40;;;6.00;1.00;;;;;;5089423;28;20443;-83
2022/10/07 04:58:35;;;;;;;15.70;4.43;;;5.90;1.00;;;;;;5081198;28;20938;-77
2022/10/07 05:01:10;;;;;;;16.73;5.00;;;6.00;1.00;;;;;;5079299;28;20487;-76
2022/10/07 05:03:38;;;;;;;15.00;4.80;;;6.00;1.00;;;;;;5084633;28;20412;-76
2022/10/07 05:06:41;;;;;;;10.93;4.70;;;6.10;1.00;;;;;;5081946;28;20437;-77
2022/10/07 05:12:29;;;;;;;7.87;4.53;;;6.30;1.00;;;;;;5090864;28;20396;-77
2022/10/07 05:15:06;;;;;;;17.03;4.33;;;6.40;1.00;;;;;;5086438;28;21001;-77
2022/10/07 05:18:11;;;;;;;7.90;4.10;;;6.50;1.00;;;;;;5091764;28;20446;-77
2022/10/07 05:21:17;;;;;;;15.40;4.20;;;6.60;1.70;;;;;;5084357;28;20421;-76
2022/10/07 05:24:05;;;;;;;22.50;4.80;;;6.70;2.50;;;;;;5083751;28;20416;-77
2022/10/07 05:36:42;;;;;;;7.13;4.10;;;7.00;2.70;;;;;;5076315;28;20408;-77
2022/10/07 05:39:09;;;;;;;16.87;5.93;;;7.10;2.00;;;;;;5074798;28;20778;-77
2022/10/07 05:41:34;;;;;;;28.50;6.00;;;7.20;1.00;;;;;;5090081;28;20923;-70
2022/10/07 05:44:00;;;;;;;30.87;6.30;;;7.30;1.00;;;;;;5075818;28;20443;-71
2022/10/07 05:46:26;;;;;;;49.30;9.77;;;7.30;1.50;;;;;;5074602;28;20182;-70
2022/10/07 05:48:52;;;;;;;30.17;7.00;;;7.40;2.10;;;;;;5074862;28;20187;-70
2022/10/07 05:51:19;;;;;;;33.00;6.30;;;7.60;1.00;;;;;;5074288;28;20524;-70
2022/10/07 05:53:45;;;;;;;18.33;5.43;;;7.60;1.00;;;;;;5074078;28;21015;-70
2022/10/07 05:56:20;;;;;;;21.10;4.23;;;7.60;1.00;;;;;;5073970;28;20422;-70
2022/10/07 05:58:46;;;;;;;18.80;4.17;;;7.50;1.00;;;;;;5075300;28;20922;-78
2022/10/07 06:01:17;;;;;;;15.13;4.20;;;7.70;1.00;;;;;;5074922;28;20429;-77
2022/10/07 06:03:48;;;;;;;24.57;4.67;;;7.80;1.00;;;;;;5083138;28;20988;-78
2022/10/07 06:06:14;;;;;;;9.20;4.53;;;7.80;1.00;;;;;;5074093;28;21048;-78
2022/10/07 06:08:39;;;;;;;20.70;5.87;;;7.80;1.00;;;;;;5077496;28;20436;-78
2022/10/07 06:13:52;;;;;;;11.07;4.93;;;8.00;1.00;;;;;;5070236;28;20492;-78
2022/10/07 06:16:18;;;;;;;20.63;5.07;;;8.10;1.00;;;;;;5071707;28;20460;-78
2022/10/07 06:18:44;;;;;;;22.60;5.10;;;8.20;1.00;;;;;;5074700;28;20437;-78
2022/10/07 06:21:11;;;;;;;35.30;5.87;;;8.20;1.00;;;;;;5079846;28;20534;-78
2022/10/07 06:24:23;;;;;;;13.43;5.53;;;8.30;1.00;;;;;;5082297;28;20802;-79
2022/10/07 06:26:49;;;;;;;26.17;4.50;;;8.40;1.00;;;;;;5084550;28;20510;-70
2022/10/07 06:29:15;;;;;;;13.10;3.80;;;8.40;1.00;;;;;;5076472;28;20496;-69
2022/10/07 06:31:40;;;;;;;17.47;4.33;;;8.60;1.00;;;;;;5074678;28;20183;-70
2022/10/07 06:34:06;;;;;;;13.30;4.77;;;8.70;1.00;;;;;;5076284;28;20455;-69
2022/10/07 06:36:31;;;;;;;12.70;5.00;;;8.70;1.00;;;;;;5076925;28;20666;-70
2022/10/07 06:38:57;;;;;;;17.33;4.30;;;8.80;1.00;;;;;;5073284;28;20183;-70
2022/10/07 06:41:23;;;;;;;13.07;4.70;;;8.90;1.00;;;;;;5077211;28;20332;-69
2022/10/07 06:43:53;;;;;;;13.77;3.80;;;9.10;1.00;;;;;;5075238;28;20175;-70
2022/10/07 06:46:41;;;;;;;16.63;4.77;;;9.10;1.00;;;;;;5074623;28;20261;-77
2022/10/07 06:49:30;;;;;;;8.50;3.67;;;9.30;1.00;;;;;;5073917;28;20429;-76
2022/10/07 06:52:29;;;;;;;11.37;4.47;;;9.40;1.00;;;;;;5084857;28;20577;-76
2022/10/07 06:55:06;;;;;;;13.10;3.90;;;9.60;1.00;;;;;;5078176;28;20506;-76
2022/10/07 07:00:54;;;;;;;13.77;4.03;;;9.90;1.00;;;;;;5078348;28;20522;-83
2022/10/07 07:03:35;;;;;;;16.83;4.57;;;10.10;1.00;;;;;;5087819;28;20484;-83
2022/10/07 07:06:01;;;;;;;27.60;3.87;;;10.20;1.00;;;;;;5084199;28;20436;-84
2022/10/07 07:08:30;;;;;;;19.50;4.00;;;10.40;1.00;;;;;;5086721;28;20842;-83
2022/10/07 07:14:24;;;;;;;15.00;4.43;;;10.70;1.00;;;;;;5079867;28;20552;-78
2022/10/07 07:17:23;;;;;;;24.23;4.03;;;10.90;1.00;;;;;;5077532;28;20400;-77
2022/10/07 07:19:55;;;;;;;18.20;3.87;;;11.10;1.00;;;;;;5089453;27;20439;-77
2022/10/07 07:22:24;;;;;;;15.90;4.83;;;11.30;1.00;;;;;;5074619;28;20425;-78
2022/10/07 07:25:23;;;;;;;18.97;4.70;;;11.20;1.00;;;;;;5083771;28;20436;-77
2022/10/07 07:28:23;;;;;;;18.33;4.80;;;11.30;1.00;;;;;;5091771;28;20439;-78
2022/10/07 07:30:54;;;;;;;14.33;4.63;;;11.30;1.00;;;;;;5079749;28;20469;-77
2022/10/07 07:33:24;;;;;;;18.80;4.53;;;11.30;1.00;;;;;;5083286;28;20796;-77
2022/10/07 07:36:28;;;;;;;9.23;3.20;;;11.30;1.00;;;;;;5077184;28;20947;-77
2022/10/07 07:46:17;;;;;;;9.07;3.40;;;11.30;1.00;;;;;;5050126;28;20429;-77
2022/10/07 07:48:48;;;;;;;8.73;3.40;;;11.30;1.00;;;;;;5051191;28;20421;-77
2022/10/07 07:54:36;;;;;;;8.40;3.27;;;11.40;1.00;;;;;;5042465;28;20542;-77
2022/10/07 08:01:05;;;;;;;9.27;3.00;;;11.50;1.00;;;;;;5050929;28;20390;-79
2022/10/07 08:06:52;;;;;;;11.13;2.70;;;11.50;1.00;;;;;;5050619;28;20786;-80
2022/10/07 08:12:39;;;;;;;15.43;2.87;;;11.70;1.00;;;;;;5047056;28;20197;-80
2022/10/07 08:15:23;;;;;;;11.03;3.20;;;11.80;1.00;;;;;;5083488;28;20452;-79
2022/10/07 08:21:13;;;;;;;12.63;3.33;;;12.00;1.00;;;;;;5072746;28;20467;-81
2022/10/07 08:24:01;;;;;;;7.07;2.50;;;12.10;1.00;;;;;;5083849;28;20829;-79
2022/10/07 08:30:11;;;;;;;9.30;2.77;;;12.30;1.00;;;;;;5073896;28;20408;-80
2022/10/07 08:33:23;;;;;;;5.00;2.70;;;12.40;1.00;;;;;;5081824;28;20782;-81
2022/10/07 08:36:35;;;;;;;6.63;2.80;;;12.50;1.00;;;;;;5083800;28;20436;-80
2022/10/07 08:42:33;;;;;;;6.93;3.00;;;12.70;1.00;;;;;;5078909;28;20440;-81
2022/10/07 08:48:28;;;;;;;6.93;2.47;;;12.80;1.00;;;;;;5081671;28;20401;-79
2022/10/07 08:58:02;;;;;;;6.90;3.47;;;13.20;1.00;;;;;;5090891;28;20431;-78
2022/10/07 09:00:54;;;;;;;13.47;3.80;;;13.30;1.00;;;;;;5085588;28;20408;-78
2022/10/07 09:04:01;;;;;;;9.67;3.17;;;13.40;1.00;;;;;;5079463;28;20456;-83
2022/10/07 09:07:05;;;;;;;10.93;3.57;;;13.50;1.00;;;;;;5083460;28;20915;-78
2022/10/07 09:13:20;;;;;;;12.57;4.00;;;13.80;1.00;;;;;;5031692;28;20441;-78
2022/10/07 09:19:15;;;;;;;9.17;3.53;;;14.10;1.00;;;;;;5030002;28;20409;-81
2022/10/07 09:28:42;;;;;;;7.30;3.60;;;14.40;1.00;;;;;;5032532;28;20434;-81
2022/10/07 09:31:20;;;;;;;6.63;3.40;;;14.50;1.00;;;;;;5026139;28;20453;-78
2022/10/07 09:34:18;;;;;;;8.53;3.33;;;14.50;1.00;;;;;;5031136;28;20462;-78
2022/10/07 09:40:31;;;;;;;6.40;2.73;;;14.80;1.00;;;;;;5027128;28;20450;-78
2022/10/07 09:43:08;;;;;;;6.03;3.30;;;14.90;1.00;;;;;;5026853;28;20462;-78
2022/10/07 09:46:24;;;;;;;4.53;3.33;;;15.00;1.00;;;;;;5018991;28;20812;-81
2022/10/07 09:52:22;;;;;;;8.20;3.20;;;15.10;1.00;;;;;;5082194;28;20406;-80
2022/10/07 09:58:29;;;;;;;8.27;3.10;;;15.20;1.00;;;;;;5079486;28;20420;-81
2022/10/07 10:01:10;;;;;;;7.03;2.90;;;15.30;1.00;;;;;;5077978;28;20756;-79
2022/10/07 10:03:48;;;;;;;5.47;2.57;;;15.40;1.00;;;;;;5076275;28;20475;-79
2022/10/07 10:09:56;;;;;;;6.67;2.57;;;15.60;1.00;;;;;;5076183;28;20435;-88
2022/10/07 10:12:23;;;;;;;5.60;2.40;;;15.70;1.00;;;;;;5081641;28;20429;-76
2022/10/07 10:14:58;;;;;;;7.60;2.63;;;15.80;1.00;;;;;;5080899;28;20464;-76
2022/10/07 10:17:42;;;;;;;5.97;2.80;;;15.90;1.00;;;;;;5083227;28;20431;-76
2022/10/07 10:20:23;;;;;;;8.63;2.80;;;16.00;1.00;;;;;;5087691;28;20420;-76
2022/10/07 10:23:35;;;;;;;9.93;2.60;;;16.00;1.00;;;;;;5077180;28;20401;-76
2022/10/07 10:26:29;;;;;;;7.33;2.70;;;16.00;1.00;;;;;;5078575;28;20779;-76
2022/10/07 10:29:20;;;;;;;7.93;2.73;;;16.10;1.00;;;;;;5079862;28;21019;-78
2022/10/07 10:42:35;;;;;;;6.93;2.57;;;16.70;1.00;;;;;;5085701;28;20781;-84
2022/10/07 10:48:38;;;;;;;6.83;2.70;;;16.90;1.00;;;;;;5076992;28;20402;-84
2022/10/07 10:51:47;;;;;;;7.33;2.87;;;17.00;1.00;;;;;;5080750;28;20407;-84
2022/10/07 10:58:11;;;;;;;5.67;2.70;;;17.20;1.00;;;;;;5074803;28;20738;-83
2022/10/07 11:01:08;;;;;;;7.80;2.50;;;17.30;1.00;;;;;;5080235;28;20487;-76
2022/10/07 11:03:54;;;;;;;9.97;2.57;;;17.40;1.00;;;;;;5085934;28;20398;-76
2022/10/07 11:06:51;;;;;;;13.60;2.00;;;17.50;1.00;;;;;;5072383;28;20442;-75
2022/10/07 11:09:35;;;;;;;4.47;2.20;;;17.60;1.00;;;;;;5074244;28;20387;-76
2022/10/07 11:12:40;;;;;;;4.33;1.43;;;17.70;1.00;;;;;;5082808;28;20410;-75
2022/10/07 11:15:23;;;;;;;5.00;1.87;;;17.90;1.00;;;;;;5032017;28;20483;-75
2022/10/07 11:18:06;;;;;;;7.50;1.70;;;17.90;1.00;;;;;;5024649;28;21473;-75
2022/10/07 11:20:47;;;;;;;6.63;1.30;;;18.10;1.00;;;;;;5018392;28;20413;-75
2022/10/07 11:23:40;;;;;;;3.70;1.20;;;18.00;1.00;;;;;;5012391;28;20534;-75
2022/10/07 11:29:58;;;;;;;5.27;1.90;;;18.10;1.00;;;;;;5011897;28;20408;-76
2022/10/07 11:32:29;;;;;;;9.30;1.80;;;18.10;1.00;;;;;;5026270;28;20585;-75
2022/10/07 11:35:15;;;;;;;8.83;1.43;;;18.20;1.00;;;;;;5018380;28;20527;-75
2022/10/07 11:38:11;;;;;;;8.20;1.20;;;18.30;1.00;;;;;;5022921;28;20451;-75
2022/10/07 11:41:00;;;;;;;6.17;1.63;;;18.30;1.00;;;;;;4960130;28;20435;-75
2022/10/07 11:43:47;;;;;;;3.93;1.43;;;18.30;1.00;;;;;;4965852;28;20414;-74
2022/10/07 11:46:35;;;;;;;3.17;1.43;;;18.40;1.00;;;;;;4968855;28;20460;-81
2022/10/07 11:52:30;;;;;;;8.63;1.50;;;18.60;1.00;;;;;;5039358;28;20379;-82
2022/10/07 12:01:50;;;;;;;3.97;1.50;;;18.50;1.00;;;;;;5051173;28;20954;-76
2022/10/07 12:04:29;;;;;;;7.47;1.30;;;18.60;1.00;;;;;;5039846;28;21356;-75
2022/10/07 12:07:32;;;;;;;5.37;1.50;;;18.70;1.00;;;;;;5033009;28;20414;-75
2022/10/07 12:10:25;;;;;;;5.77;1.80;;;18.80;1.00;;;;;;5036849;28;20847;-75
2022/10/07 12:12:54;;;;;;;4.53;1.43;;;18.80;1.00;;;;;;5048290;28;20452;-75
2022/10/07 12:15:38;;;;;;;8.33;1.70;;;18.90;1.00;;;;;;5042430;28;20930;-74
2022/10/07 12:18:04;;;;;;;10.43;1.67;;;19.10;1.00;;;;;;5065988;28;20407;-83
2022/10/07 12:20:53;;;;;;;5.83;1.47;;;19.30;1.00;;;;;;5078757;28;20429;-83
2022/10/07 12:26:44;;;;;;;3.43;1.33;;;19.80;1.00;;;;;;5083301;28;20533;-82
2022/10/07 12:32:43;;;;;;;3.73;1.13;;;20.10;1.00;;;;;;5075414;28;20462;-82
2022/10/07 12:35:33;;;;;;;4.53;1.50;;;20.30;1.00;;;;;;5072820;28;20469;-82
2022/10/07 12:41:30;;;;;;;4.50;1.20;;;20.40;1.00;;;;;;5087130;28;20447;-83
2022/10/07 12:44:42;;;;;;;11.73;1.73;;;20.70;1.00;;;;;;5086202;28;20492;-83
2022/10/07 12:50:32;;;;;;;3.17;1.00;;;20.70;1.00;;;;;;5093884;28;20818;-83
2022/10/07 13:03:35;;;;;;;4.83;1.17;;;20.50;1.00;;;;;;5084358;28;20420;-77
2022/10/07 13:06:41;;;;;;;5.90;1.30;;;20.60;1.00;;;;;;5096888;28;20397;-78
2022/10/07 13:09:31;;;;;;;9.70;1.50;;;20.70;1.00;;;;;;5096117;28;20507;-77
2022/10/07 13:15:40;;;;;;;2.50;1.10;;;20.50;1.00;;;;;;5077046;28;20463;-76
2022/10/07 13:18:25;;;;;;;6.53;1.50;;;20.60;1.00;;;;;;5083622;28;20810;-77
2022/10/07 13:20:57;;;;;;;3.03;1.60;;;20.40;1.00;;;;;;5086007;28;20391;-75
2022/10/07 13:23:26;;;;;;;4.30;1.70;;;20.40;1.00;;;;;;5078891;28;20437;-77
2022/10/07 13:26:06;;;;;;;2.50;1.33;;;20.30;1.00;;;;;;5081152;28;20434;-77
2022/10/07 13:28:44;;;;;;;5.70;1.80;;;20.40;1.00;;;;;;5078604;28;20424;-77
2022/10/07 13:31:25;;;;;;;10.60;1.17;;;20.30;1.00;;;;;;5084767;28;20413;-76
2022/10/07 13:33:52;;;;;;;4.77;1.87;;;20.40;1.00;;;;;;5087114;28;20987;-76
2022/10/07 13:36:26;;;;;;;8.10;1.40;;;20.50;1.00;;;;;;5095875;28;20376;-75
2022/10/07 13:39:11;;;;;;;2.77;1.47;;;20.60;1.00;;;;;;5088190;28;20397;-78
2022/10/07 13:41:47;;;;;;;8.67;2.03;;;20.70;1.00;;;;;;5091567;28;20434;-76
2022/10/07 13:44:18;;;;;;;2.80;1.10;;;20.60;1.00;;;;;;5084270;28;20516;-76
2022/10/07 13:47:06;;;;;;;4.90;1.10;;;20.70;1.00;;;;;;5088138;28;20444;-78
2022/10/07 13:59:37;;;;;;;7.80;1.57;;;20.80;1.00;;;;;;5078820;28;20478;-86
2022/10/07 14:02:35;;;;;;;5.70;1.50;;;20.80;1.00;;;;;;5095925;28;20415;-87
2022/10/07 14:05:24;;;;;;;6.60;1.63;;;20.80;1.00;;;;;;5086911;28;20560;-79
2022/10/07 14:07:57;;;;;;;2.83;1.37;;;20.90;1.00;;;;;;5083151;28;20409;-79
2022/10/07 14:10:26;;;;;;;4.33;1.70;;;20.90;1.00;;;;;;5079277;28;20988;-77
2022/10/07 14:13:06;;;;;;;4.80;1.70;;;20.80;1.00;;;;;;5087239;28;20412;-77
2022/10/07 14:15:35;;;;;;;6.97;1.67;;;20.80;1.00;;;;;;5089412;28;20424;-77
2022/10/07 14:21:22;;;;;;;5.50;1.50;;;20.80;1.00;;;;;;5075670;28;20393;-89
2022/10/07 14:24:08;;;;;;;3.10;1.37;;;21.00;1.00;;;;;;5082722;28;20427;-85
2022/10/07 14:27:32;;;;;;;2.63;1.50;;;21.00;1.00;;;;;;5093522;28;20224;-86
2022/10/07 14:29:57;;;;;;;6.07;1.60;;;21.00;1.00;;;;;;5056291;28;20516;-86
2022/10/07 14:35:38;;;;;;;4.90;1.30;;;20.90;1.00;;;;;;5056521;28;20223;-88
2022/10/07 14:41:27;;;;;;;3.83;1.53;;;21.00;1.00;;;;;;5067145;28;20927;-82
2022/10/07 14:47:53;;;;;;;5.00;1.33;;;20.90;1.00;;;;;;5070342;28;20955;-82
2022/10/07 14:50:59;;;;;;;6.53;1.50;;;20.80;1.00;;;;;;5071988;28;20469;-77
2022/10/07 14:54:11;;;;;;;2.30;1.30;;;20.90;1.00;;;;;;5071772;28;20945;-77
2022/10/07 14:56:54;;;;;;;6.57;1.50;;;20.80;1.00;;;;;;5072583;28;20413;-77
2022/10/07 14:59:41;;;;;;;16.77;1.30;;;20.90;1.00;;;;;;5067353;28;20419;-77
2022/10/07 15:02:19;;;;;;;4.57;1.33;;;20.70;1.00;;;;;;5075028;28;20471;-77
2022/10/07 15:08:12;;;;;;;6.83;1.90;;;20.50;1.00;;;;;;5078206;28;20857;-77
2022/10/07 15:11:23;;;;;;;7.07;1.50;;;20.50;1.00;;;;;;5092210;28;20927;-78
2022/10/07 15:13:54;;;;;;;9.93;1.47;;;20.60;1.00;;;;;;5082645;28;20803;-77
2022/10/07 15:16:30;;;;;;;3.77;1.40;;;20.60;1.00;;;;;;5085166;28;20417;-77
2022/10/07 15:19:01;;;;;;;3.37;1.60;;;20.60;1.00;;;;;;5079189;28;20452;-78
2022/10/07 15:21:28;;;;;;;6.73;1.67;;;20.70;1.00;;;;;;5088721;28;20439;-78
2022/10/07 15:23:55;;;;;;;10.07;2.03;;;20.70;1.00;;;;;;5086561;28;20506;-77
2022/10/07 15:27:00;;;;;;;3.73;1.60;;;20.80;1.00;;;;;;5087342;28;20404;-77
2022/10/07 15:29:54;;;;;;;4.80;1.63;;;21.00;1.00;;;;;;5087745;28;20384;-77
2022/10/07 15:32:47;;;;;;;7.57;1.70;;;21.00;1.00;;;;;;5080146;28;20430;-78
2022/10/07 15:35:35;;;;;;;6.47;1.80;;;21.00;1.00;;;;;;5081636;28;20449;-79
2022/10/07 15:38:06;;;;;;;5.57;1.60;;;21.00;1.00;;;;;;5079971;28;20441;-78
2022/10/07 15:40:53;;;;;;;4.13;2.00;;;21.10;1.00;;;;;;5073680;28;20746;-78
2022/10/07 15:43:59;;;;;;;8.40;2.20;;;21.10;1.00;;;;;;5087062;28;20416;-79
2022/10/07 15:46:47;;;;;;;4.63;1.67;;;21.30;1.00;;;;;;5080456;28;20415;-77
2022/10/07 15:52:42;;;;;;;7.47;2.07;;;22.00;1.00;;;;;;5081433;28;20431;-83
2022/10/07 15:55:12;;;;;;;6.23;2.17;;;22.10;1.00;;;;;;5094404;28;20934;-85
2022/10/07 16:01:07;;;;;;;13.77;2.77;;;21.90;1.00;;;;;;5072540;28;20493;-83
2022/10/07 16:04:17;;;;;;;9.67;2.70;;;21.60;1.00;;;;;;5086147;28;20446;-82
2022/10/07 16:06:54;;;;;;;8.37;2.60;;;21.40;1.00;;;;;;5083327;28;20486;-75
2022/10/07 16:09:22;;;;;;;10.43;3.00;;;20.90;1.00;;;;;;5074814;28;20415;-75
2022/10/07 16:11:48;;;;;;;6.17;2.50;;;20.60;1.00;;;;;;5088889;28;20425;-75
2022/10/07 16:14:42;;;;;;;7.80;2.67;;;20.40;1.00;;;;;;5079209;28;20549;-79
2022/10/07 16:17:13;;;;;;;9.93;2.60;;;20.00;1.00;;;;;;5074145;28;20406;-78
2022/10/07 16:19:38;;;;;;;4.50;2.70;;;19.70;1.00;;;;;;5075457;28;20771;-79
2022/10/07 16:22:12;;;;;;;8.40;3.20;;;19.40;1.00;;;;;;5077684;28;20947;-78
2022/10/07 16:25:29;;;;;;;3.97;2.23;;;19.20;1.00;;;;;;5088738;28;20181;-78
2022/10/07 16:31:11;;;;;;;5.83;2.73;;;18.60;1.00;;;;;;5077997;28;20458;-78
2022/10/07 16:36:59;;;;;;;8.73;1.87;;;18.00;1.00;;;;;;5077605;28;20467;-78
2022/10/07 16:39:30;;;;;;;3.73;1.80;;;17.70;1.00;;;;;;5087470;28;20445;-79
2022/10/07 16:42:23;;;;;;;24.93;9.27;;;17.50;1.00;;;;;;5082068;28;20176;-75
2022/10/07 16:44:50;;;;;;;12.13;6.00;;;17.30;1.00;;;;;;5088427;28;20497;-75
2022/10/07 16:47:35;;;;;;;5.77;2.50;;;17.20;1.00;;;;;;5077054;28;20400;-78
2022/10/07 16:56:48;;;;;;;10.53;2.30;;;16.70;1.00;;;;;;5084641;28;20377;-91
2022/10/07 16:59:19;;;;;;;10.13;2.97;;;16.40;1.00;;;;;;5096917;28;20373;-90
2022/10/07 17:05:59;;;;;;;10.83;3.20;;;16.10;1.00;;;;;;5077872;28;20400;-90
2022/10/07 17:12:00;;;;;;;17.90;6.00;;;15.70;1.00;;;;;;5081320;28;20405;-84
2022/10/07 17:14:54;;;;;;;12.80;6.53;;;15.50;1.00;;;;;;5091364;28;20476;-86
2022/10/07 17:17:53;;;;;;;101.77;44.27;;;15.30;1.00;;;;;;5088877;28;20399;-85
2022/10/07 17:20:59;;;;;;;72.47;26.73;;;15.20;1.00;;;;;;5094900;28;20935;-87
2022/10/07 17:23:31;;;;;;;25.43;8.57;;;15.00;1.00;;;;;;5083833;28;20429;-77
2022/10/07 17:26:02;;;;;;;19.80;6.00;;;14.90;1.00;;;;;;5075350;28;20812;-77
2022/10/07 17:29:29;;;;;;;16.40;6.50;;;14.80;1.00;;;;;;5095544;28;20359;-78
2022/10/07 17:32:09;;;;;;;15.67;3.27;;;14.70;1.00;;;;;;5087151;28;20435;-78
2022/10/07 17:34:35;;;;;;;7.93;2.50;;;14.50;1.00;;;;;;5082550;28;20440;-76
2022/10/07 17:37:35;;;;;;;31.10;7.93;;;14.40;1.00;;;;;;5081477;28;20402;-90
2022/10/07 17:40:42;;;;;;;22.50;9.50;;;14.30;1.00;;;;;;5084916;28;20410;-91
2022/10/07 17:46:31;;;;;;;15.70;3.60;;;14.10;1.00;;;;;;5084821;28;20396;-81
2022/10/07 17:49:18;;;;;;;12.37;3.30;;;14.00;1.00;;;;;;5084461;28;20422;-81
2022/10/07 18:01:49;;;;;;;7.00;3.50;;;13.70;1.00;;;;;;5079741;28;20479;-82
2022/10/07 18:04:17;;;;;;;7.10;2.77;;;13.70;1.00;;;;;;5089356;28;20905;-81
2022/10/07 18:07:05;;;;;;;13.70;2.77;;;13.60;1.00;;;;;;5077265;28;20657;-80
2022/10/07 18:09:31;;;;;;;6.20;3.47;;;13.60;1.00;;;;;;5079984;28;20444;-80
2022/10/07 18:18:23;;;;;;;6.80;2.97;;;13.50;1.00;;;;;;5084073;28;20424;-83
2022/10/07 18:20:51;;;;;;;16.27;5.20;;;13.40;1.00;;;;;;5076230;28;20421;-86
2022/10/07 18:23:24;;;;;;;11.80;3.87;;;13.40;1.00;;;;;;5081151;28;20413;-86
2022/10/07 18:26:14;;;;;;;23.63;8.83;;;13.30;1.00;;;;;;5075402;28;20441;-84
2022/10/07 18:28:42;;;;;;;21.67;4.30;;;13.30;1.00;;;;;;5088164;28;20412;-80
2022/10/07 18:31:18;;;;;;;12.23;3.23;;;13.30;1.00;;;;;;5082133;28;20449;-81
2022/10/07 18:33:48;;;;;;;13.63;4.10;;;13.20;1.00;;;;;;5092638;28;20963;-81
2022/10/07 18:36:35;;;;;;;8.23;3.40;;;13.20;1.00;;;;;;5080515;28;20382;-80
2022/10/07 18:39:35;;;;;;;11.07;2.80;;;13.10;1.00;;;;;;5082446;28;20474;-80
2022/10/07 18:42:12;;;;;;;20.77;6.67;;;13.10;1.00;;;;;;5079838;28;20769;-81
2022/10/07 18:48:12;;;;;;;12.70;5.50;;;13.10;1.00;;;;;;5080006;28;20394;-80
2022/10/07 18:51:17;;;;;;;14.20;4.07;;;13.10;1.00;;;;;;5088069;28;20602;-82
2022/10/07 18:57:24;;;;;;;11.50;4.43;;;13.20;1.00;;;;;;5083426;28;20395;-82
2022/10/07 19:00:17;;;;;;;11.97;3.57;;;13.30;1.00;;;;;;5082150;28;20936;-82
2022/10/07 19:03:32;;;;;;;13.37;4.83;;;13.40;1.00;;;;;;5076172;28;20779;-82
2022/10/07 19:06:35;;;;;;;18.47;4.63;;;13.40;1.00;;;;;;5078444;28;20444;-79
2022/10/07 19:15:12;;;;;;;16.73;6.20;;;13.60;1.00;;;;;;5078850;28;20444;-80
2022/10/07 19:17:49;;;;;;;13.20;4.40;;;13.60;1.00;;;;;;5080571;28;20420;-83
2022/10/07 19:26:58;;;;;;;12.80;5.30;;;13.80;1.00;;;;;;5085095;28;20422;-82
2022/10/07 19:29:24;;;;;;;11.20;4.33;;;13.90;1.00;;;;;;5079149;28;20521;-82
2022/10/07 19:32:41;;;;;;;11.70;4.37;;;14.00;1.00;;;;;;5085635;28;20183;-82
2022/10/07 19:35:07;;;;;;;8.73;3.13;;;14.00;1.00;;;;;;5076584;28;20195;-82
2022/10/07 19:40:56;;;;;;;137.43;62.27;;;14.10;1.00;;;;;;5081716;28;20462;-81
2022/10/07 19:43:42;;;;;;;124.53;56.20;;;14.10;1.00;;;;;;5076569;28;20432;-89
2022/10/07 19:49:42;;;;;;;16.90;4.70;;;14.00;1.00;;;;;;5082430;28;20426;-83
2022/10/07 19:52:55;;;;;;;17.50;5.60;;;14.00;1.00;;;;;;5074628;28;20772;-81
2022/10/07 19:55:53;;;;;;;31.83;16.80;;;14.10;1.00;;;;;;5073461;28;20526;-83
2022/10/07 19:58:30;;;;;;;19.67;8.07;;;14.10;1.00;;;;;;5082992;28;20503;-88
2022/10/07 20:01:10;;;;;;;9.23;5.03;;;14.10;1.00;;;;;;5076616;28;20527;-84
2022/10/07 20:03:36;;;;;;;38.10;21.10;;;14.00;1.00;;;;;;5080859;28;20463;-81
2022/10/07 20:06:07;;;;;;;30.50;18.00;;;13.90;1.00;;;;;;5091381;28;20863;-81
2022/10/07 20:08:43;;;;;;;49.97;26.17;;;13.90;1.00;;;;;;5087653;28;20420;-78
2022/10/07 20:11:10;;;;;;;134.70;64.40;;;13.80;1.00;;;;;;5079508;28;20407;-77
2022/10/07 20:14:14;;;;;;;55.17;29.70;;;13.70;1.00;;;;;;5084709;28;20440;-77
2022/10/07 20:16:39;;;;;;;54.40;30.83;;;13.70;1.00;;;;;;5085942;28;20416;-80
2022/10/07 20:19:15;;;;;;;60.93;32.67;;;13.60;1.00;;;;;;5076377;28;20417;-79
2022/10/07 20:21:48;;;;;;;51.53;27.97;;;13.60;1.00;;;;;;5083486;28;20264;-80
2022/10/07 20:25:05;;;;;;;38.43;21.13;;;13.60;1.00;;;;;;5084036;28;20429;-87
2022/10/07 20:27:32;;;;;;;23.47;10.50;;;13.50;1.00;;;;;;5085304;28;20545;-80
2022/10/07 20:33:43;;;;;;;16.67;7.67;;;13.30;1.00;;;;;;5080467;28;20918;-79
2022/10/07 20:36:26;;;;;;;14.37;7.30;;;13.20;1.00;;;;;;5073031;28;20413;-80
2022/10/07 20:42:23;;;;;;;8.60;4.87;;;13.10;1.00;;;;;;5078106;28;20500;-84
2022/10/07 20:48:42;;;;;;;11.17;3.60;;;12.90;1.00;;;;;;5041142;28;20510;-84
2022/10/07 20:51:41;;;;;;;12.37;4.67;;;12.90;1.00;;;;;;5051343;28;20809;-85
2022/10/07 20:54:12;;;;;;;21.10;4.90;;;12.80;1.00;;;;;;5044740;28;20468;-83
2022/10/07 20:56:58;;;;;;;20.93;4.13;;;12.70;1.00;;;;;;5051357;28;20483;-84
2022/10/07 20:59:42;;;;;;;11.67;4.60;;;12.70;1.00;;;;;;5034881;28;20689;-86
2022/10/07 21:02:42;;;;;;;17.73;5.20;;;12.70;1.00;;;;;;5042682;28;20437;-82
2022/10/07 21:05:41;;;;;;;22.73;4.60;;;12.70;1.00;;;;;;5032909;28;20434;-90
2022/10/07 21:08:13;;;;;;;25.00;4.80;;;12.60;1.00;;;;;;5048214;28;20439;-88